Hartford, Connecticut
Traffic Map
Current Weather Conditions
Hartford, Connecticut
Overcast
Overcast
15°
Feels Like: 1°
Wind Chill: Ceiling: 7000
Heat Index: 15° Visibility: 10mi
Dew Point: Wind: 13mph
Humidity: 56% Direction: 20° (NNE)
Pressure: 30.11in Gusts: 0mph
Raw Report DataKHFD 261353Z 02011KT 10SM OVC070 M09/M17 A3011 RMK AO2 SLP196 T10941167
Traffic Incident Summary
Active as of:
Severity:
Category:
InformationThere was an issue retrieving the traffic information for this location. Please try a different location or try again shortly.
Advertisements
Track Severe Weather on mobile